首页
METAR-TAF:

METAR-TAF

机场 :

佩奇, 匈牙利

纬度: 46-06N, 经度: 018-14E, 海拔: 201米

当前天气观测

该预报发布于44分钟前的15:15 UTC
风速8节,风向
温度 3°C
湿度 100%
气压 991 hPa
能見度: 1100
阴天层高于400英尺
轻雾

METAR: LHPP 131515Z 10008KT 1100 BR OVC004 03/03 Q0991

时间: 16:59 (15:59 UTC)

预报

该预报发布于10分钟前的15:49 UTC
预报有效从13日的 15点(UTC)到 13日的 24点(UTC)
风速6节,风向东转东南
能見度: 0800
阴天层高于500英尺
短暂存在
从 13日的 15点(UTC)到 13日的 20点(UTC)
能見度: 0500
阴天层高于200英尺
成为
从 13日的 20点(UTC)到 13日的 23点(UTC)
风速8节,风向北转东北
能見度: 3000
散云层高于500英尺
多云层高于1500英尺
阴天层高于5000英尺
小雨, 轻雾

TAF: LHPP 131549Z 1315/1324 11006KT 0800 FG OVC005 TEMPO 1315/1320 0500 FG OVC002 BECMG 1320/1323 03008KT 3000 -RA BR SCT005 BKN015 OVC050

超过4000个机场的气象观测和天气预报(METAR&TAF报告)。

可查询的气象台以黄色和红色小点在地图上表示。

将鼠标移到小点上方,可查看气象台名称。

然后点击查看天气观测和预报。

如需切换地图:点击带黑十字的绿色按钮放大地图;点击带横线的绿色按钮缩小地图;或者点击绿色箭头查看邻近地区的地图。


METAR-TAF: